Terminal Aerodrome Forecast
Issued by NWS

Home | Current Version | Previous Version | Text Only | Print | Product List | Glossary On
Versions: 1 2 3 4 5 6 7 8 9 10 11 12 13 14 15 16 17 18 19 20 21 22 23 24 25
000
FTUS42 KGSP 040540
TAFGMU
TAF
KGMU 040540Z 0406/0506 00000KT 1SM BR OVC002
      TEMPO 0406/0410 1/2SM FG
     FM041000 22006KT 3/4SM BR OVC001 WS020/24040KT
     FM041400 22008KT 3SM BR BKN003 WS020/24040KT
     FM041600 23013KT P6SM BKN012
     FM042000 23014G22KT P6SM BKN250
     FM050000 22009KT P6SM BKN250=

USA.gov is the U.S. government's official web portal to all federal, state and local government web resources and services.